createdAt,value
2023-05-04T00:02:07.827Z,70.42
2023-05-04T00:04:34.777Z,71.36
2023-05-04T00:07:01.631Z,71.05
2023-05-04T00:09:28.553Z,71.09
2023-05-04T00:11:55.380Z,71.28
2023-05-04T00:14:22.476Z,71.09
2023-05-04T00:16:49.302Z,71.31
2023-05-04T00:19:18.937Z,71.32
2023-05-04T00:21:45.844Z,71.71
2023-05-04T00:24:12.623Z,71.40
2023-05-04T00:26:39.370Z,71.88
2023-05-04T00:29:06.342Z,71.59
2023-05-04T00:31:33.236Z,71.92
2023-05-04T00:34:00.079Z,71.98
2023-05-04T00:36:26.869Z,71.80
2023-05-04T00:38:55.156Z,71.85
2023-05-04T00:41:22.670Z,71.57
2023-05-04T00:43:49.721Z,71.28
2023-05-04T00:46:17.019Z,71.50
2023-05-04T00:48:47.206Z,71.45
2023-05-04T00:51:16.654Z,70.83
2023-05-04T00:53:44.069Z,70.88
2023-05-04T00:56:11.837Z,70.73
2023-05-04T00:58:38.852Z,70.65
2023-05-04T01:01:05.902Z,70.48
2023-05-04T01:03:33.676Z,70.38
2023-05-04T01:06:31.074Z,70.44
2023-05-04T01:09:12.368Z,70.70
2023-05-04T01:12:08.061Z,70.75
2023-05-04T01:14:36.712Z,70.65
2023-05-04T01:17:07.608Z,70.43
2023-05-04T01:19:35.914Z,70.28
2023-05-04T01:22:02.720Z,70.58
2023-05-04T01:24:30.801Z,70.27
2023-05-04T01:27:23.846Z,70.29
2023-05-04T01:30:11.009Z,70.91
2023-05-04T01:32:39.694Z,70.81
2023-05-04T01:35:07.654Z,70.50
2023-05-04T01:37:34.548Z,70.02
2023-05-04T01:40:01.428Z,70.13
2023-05-04T01:42:28.506Z,70.08
2023-05-04T01:44:56.361Z,69.79
2023-05-04T01:47:23.297Z,69.80
2023-05-04T01:49:50.228Z,69.91
2023-05-04T01:52:17.086Z,70.15
2023-05-04T01:54:43.891Z,69.74
2023-05-04T01:57:10.676Z,70.08
2023-05-04T01:59:37.521Z,69.53
2023-05-04T02:02:04.453Z,69.60
2023-05-04T02:04:31.325Z,69.48
2023-05-04T02:06:58.201Z,69.17
2023-05-04T02:09:25.044Z,68.83
2023-05-04T02:11:51.923Z,68.51
2023-05-04T02:14:18.712Z,69.05
2023-05-04T02:16:45.666Z,68.56
2023-05-04T02:19:12.493Z,68.58
2023-05-04T02:21:41.589Z,68.99
2023-05-04T02:24:08.423Z,68.65
2023-05-04T02:26:36.202Z,68.66
2023-05-04T02:29:03.867Z,69.02
2023-05-04T02:31:30.768Z,68.91
2023-05-04T02:33:57.679Z,68.58
2023-05-04T02:36:24.636Z,68.63
2023-05-04T02:38:51.492Z,68.45
2023-05-04T02:41:18.282Z,68.89
2023-05-04T02:43:45.208Z,68.73
2023-05-04T02:46:12.201Z,69.25
2023-05-04T02:48:39.057Z,68.78
2023-05-04T02:51:06.410Z,68.90
2023-05-04T02:53:33.226Z,68.99
2023-05-04T02:56:00.009Z,68.58
2023-05-04T02:58:26.828Z,68.45
2023-05-04T03:00:55.979Z,69.30
2023-05-04T03:03:22.829Z,68.93
2023-05-04T03:05:49.646Z,68.98
2023-05-04T03:08:16.436Z,69.50
2023-05-04T03:10:43.262Z,69.10
2023-05-04T03:13:10.086Z,69.01
2023-05-04T03:15:36.938Z,68.91
2023-05-04T03:18:03.868Z,68.61
2023-05-04T03:20:30.818Z,68.68
2023-05-04T03:22:57.655Z,68.71
2023-05-04T03:25:24.526Z,68.74
2023-05-04T03:27:51.410Z,69.05
2023-05-04T03:30:18.360Z,68.73
2023-05-04T03:32:45.824Z,68.85
2023-05-04T03:35:14.171Z,68.79
2023-05-04T03:37:41.063Z,68.81
2023-05-04T03:40:08.713Z,69.54
2023-05-04T03:42:35.948Z,68.89
2023-05-04T03:45:04.126Z,69.17
2023-05-04T03:47:31.266Z,68.77
2023-05-04T03:49:58.123Z,68.99
2023-05-04T03:52:24.967Z,68.92
2023-05-04T03:54:51.798Z,69.14
2023-05-04T03:57:18.660Z,69.01
2023-05-04T03:59:45.476Z,69.11
2023-05-04T04:02:13.720Z,69.18
2023-05-04T04:04:40.757Z,68.89
2023-05-04T04:07:07.645Z,69.36
2023-05-04T04:09:34.514Z,69.31
2023-05-04T04:12:02.185Z,69.10
2023-05-04T04:14:29.023Z,69.08
2023-05-04T04:16:55.870Z,69.25
2023-05-04T04:19:22.673Z,68.71
2023-05-04T04:21:49.712Z,68.90
2023-05-04T04:24:16.554Z,68.80
2023-05-04T04:26:43.417Z,68.49
2023-05-04T04:29:10.219Z,68.32
2023-05-04T04:31:37.135Z,68.35
2023-05-04T04:34:04.092Z,68.51
2023-05-04T04:36:30.897Z,68.37
2023-05-04T04:38:57.694Z,68.50
2023-05-04T04:41:24.974Z,69.05
2023-05-04T04:43:51.833Z,68.51
2023-05-04T04:46:19.326Z,68.21
2023-05-04T04:48:46.217Z,68.24
2023-05-04T04:51:14.058Z,68.35
2023-05-04T04:53:40.955Z,67.93
2023-05-04T04:56:07.875Z,67.52
2023-05-04T04:58:34.861Z,67.52
2023-05-04T05:01:04.865Z,67.04
2023-05-04T05:03:32.372Z,66.68
2023-05-04T05:06:01.720Z,66.28
2023-05-04T05:08:28.647Z,65.70
2023-05-04T05:10:56.184Z,65.22
2023-05-04T05:13:23.146Z,64.91
2023-05-04T05:15:50.080Z,64.46
2023-05-04T05:18:16.934Z,63.96
2023-05-04T05:20:43.777Z,63.53
2023-05-04T05:23:10.695Z,63.11
2023-05-04T05:25:38.704Z,63.14
2023-05-04T05:28:05.991Z,62.22
2023-05-04T05:30:32.869Z,62.38
2023-05-04T05:33:00.203Z,62.37
2023-05-04T05:35:27.365Z,61.66
2023-05-04T05:37:55.467Z,60.83
2023-05-04T05:40:22.465Z,61.12
2023-05-04T05:42:49.607Z,59.78
2023-05-04T05:45:16.472Z,59.99
2023-05-04T05:47:43.449Z,58.69
2023-05-04T05:50:13.791Z,58.79
2023-05-04T05:52:40.757Z,58.26
2023-05-04T05:55:08.130Z,57.86
2023-05-04T05:57:35.066Z,57.94
2023-05-04T06:00:02.116Z,58.59
2023-05-04T06:02:29.064Z,58.85
2023-05-04T06:04:57.230Z,58.20
2023-05-04T06:07:24.138Z,56.96
2023-05-04T06:09:51.313Z,57.21
2023-05-04T06:12:18.177Z,55.97
2023-05-04T06:14:45.055Z,55.67
2023-05-04T06:17:12.036Z,55.26
2023-05-04T06:19:39.312Z,54.93
2023-05-04T06:22:06.482Z,55.13
2023-05-04T06:24:33.561Z,55.28
2023-05-04T06:27:00.380Z,55.43
2023-05-04T06:29:27.244Z,54.50
2023-05-04T06:31:54.155Z,54.32
2023-05-04T06:34:21.503Z,54.44
2023-05-04T06:36:49.134Z,52.61
2023-05-04T06:39:15.973Z,53.85
2023-05-04T06:41:42.895Z,53.79
2023-05-04T06:44:09.764Z,53.65
2023-05-04T06:46:37.334Z,54.20
2023-05-04T06:49:05.070Z,53.72
2023-05-04T06:51:32.291Z,53.60
2023-05-04T06:54:01.801Z,53.03
2023-05-04T06:56:28.646Z,52.86
2023-05-04T06:58:55.445Z,52.55
2023-05-04T07:01:22.364Z,53.62
2023-05-04T07:03:49.364Z,52.65
2023-05-04T07:06:16.294Z,51.97
2023-05-04T07:08:43.187Z,52.73
2023-05-04T07:11:10.516Z,51.22
2023-05-04T07:13:38.577Z,51.26
2023-05-04T07:16:09.080Z,50.85
2023-05-04T07:18:36.267Z,50.51
2023-05-04T07:21:21.979Z,52.04
2023-05-04T07:23:52.231Z,51.66
2023-05-04T07:26:19.556Z,50.83
2023-05-04T07:28:46.759Z,50.27
2023-05-04T07:31:14.424Z,50.23
2023-05-04T07:33:41.862Z,50.45
2023-05-04T07:36:08.792Z,50.96
2023-05-04T07:38:35.793Z,49.57
2023-05-04T07:41:02.968Z,48.80
2023-05-04T07:43:29.858Z,49.17
2023-05-04T07:45:56.774Z,48.70
2023-05-04T07:48:26.205Z,49.37
2023-05-04T07:50:54.185Z,48.57
2023-05-04T07:53:21.144Z,46.86
2023-05-04T07:55:48.600Z,46.49
2023-05-04T07:58:16.658Z,46.12
2023-05-04T08:00:43.763Z,44.93
2023-05-04T08:03:10.745Z,45.89
2023-05-04T08:05:37.657Z,46.42
2023-05-04T08:08:04.610Z,46.93
2023-05-04T08:10:31.507Z,46.87
2023-05-04T08:12:58.563Z,47.20
2023-05-04T08:15:25.607Z,47.96
2023-05-04T08:17:52.492Z,46.83
2023-05-04T08:20:19.712Z,47.52
2023-05-04T08:22:47.455Z,45.94
2023-05-04T08:25:14.345Z,45.62
2023-05-04T08:27:41.257Z,45.16
2023-05-04T08:30:09.436Z,46.88
2023-05-04T08:32:36.391Z,46.49
2023-05-04T08:35:03.606Z,45.57
2023-05-04T08:37:30.888Z,46.24
2023-05-04T08:39:57.718Z,45.82
2023-05-04T08:42:32.347Z,45.46
2023-05-04T08:44:59.900Z,45.77
2023-05-04T08:47:29.089Z,45.32
2023-05-04T08:49:56.595Z,45.79
2023-05-04T08:52:25.379Z,44.84
2023-05-04T08:54:56.997Z,44.05
2023-05-04T08:57:25.775Z,43.06
2023-05-04T08:59:54.953Z,43.68
2023-05-04T09:02:23.989Z,43.18
2023-05-04T09:04:52.662Z,42.24
2023-05-04T09:07:21.635Z,41.84
2023-05-04T09:09:51.538Z,42.29
2023-05-04T09:12:19.271Z,41.76
2023-05-04T09:14:48.997Z,40.53
2023-05-04T09:17:25.519Z,40.06
2023-05-04T09:20:03.261Z,40.72
2023-05-04T09:22:30.872Z,40.24
2023-05-04T09:25:12.182Z,41.52
2023-05-04T09:27:41.347Z,40.87
2023-05-04T09:30:09.235Z,41.50
2023-05-04T09:32:46.200Z,40.98
2023-05-04T09:35:25.278Z,41.57
2023-05-04T09:37:59.326Z,40.69
2023-05-04T09:40:36.409Z,39.01
2023-05-04T09:43:03.491Z,40.18
2023-05-04T09:45:51.405Z,40.09
2023-05-04T09:48:28.838Z,39.90
2023-05-04T09:51:00.390Z,40.51
2023-05-04T09:53:32.267Z,42.29
2023-05-04T09:56:31.842Z,40.75
2023-05-04T09:58:59.435Z,40.17
2023-05-04T10:01:29.958Z,39.87
2023-05-04T10:03:57.292Z,41.45
2023-05-04T10:06:24.791Z,40.12
2023-05-04T10:08:52.115Z,41.37
2023-05-04T10:11:20.319Z,40.22
2023-05-04T10:13:50.351Z,39.67
2023-05-04T10:17:13.709Z,39.90
2023-05-04T10:20:05.559Z,41.21
2023-05-04T10:23:01.211Z,40.36
2023-05-04T10:25:59.745Z,40.07
2023-05-04T10:28:47.290Z,39.84
2023-05-04T10:31:14.662Z,39.30
2023-05-04T10:33:44.882Z,40.08
2023-05-04T10:36:12.216Z,40.09
2023-05-04T10:38:41.359Z,38.39
2023-05-04T10:41:19.434Z,38.66
2023-05-04T10:43:52.962Z,38.84
2023-05-04T10:46:21.523Z,39.00
2023-05-04T10:48:49.975Z,38.26
2023-05-04T10:51:22.739Z,37.42
2023-05-04T10:53:50.779Z,38.12
2023-05-04T10:56:28.408Z,38.55
2023-05-04T10:58:55.634Z,38.42
2023-05-04T11:01:22.966Z,36.67
2023-05-04T11:03:50.533Z,35.53
2023-05-04T11:06:23.402Z,35.15
2023-05-04T11:09:02.694Z,35.44
2023-05-04T11:11:29.610Z,37.39
2023-05-04T11:13:57.275Z,36.79
2023-05-04T11:16:27.022Z,36.60
2023-05-04T11:18:54.846Z,35.90
2023-05-04T11:21:26.116Z,36.09
2023-05-04T11:24:00.374Z,36.57
2023-05-04T11:26:28.486Z,35.27
2023-05-04T11:28:55.332Z,36.89
2023-05-04T11:31:22.480Z,36.88
2023-05-04T11:33:54.876Z,36.77
2023-05-04T11:36:22.748Z,35.62
2023-05-04T11:38:50.247Z,34.73
2023-05-04T11:41:17.199Z,33.45
2023-05-04T11:43:45.541Z,37.02
2023-05-04T11:46:12.962Z,35.49
2023-05-04T11:48:40.942Z,34.63
2023-05-04T11:51:07.827Z,33.12
2023-05-04T11:53:39.569Z,32.56
2023-05-04T11:56:10.771Z,31.55
2023-05-04T11:58:37.845Z,33.89
2023-05-04T12:01:04.880Z,33.87
2023-05-04T12:03:44.047Z,34.66
2023-05-04T12:06:30.205Z,34.00
2023-05-04T12:09:04.531Z,32.35
2023-05-04T12:11:31.756Z,33.17
2023-05-04T12:14:05.229Z,32.47
2023-05-04T12:16:32.448Z,32.28
2023-05-04T12:19:11.509Z,31.92
2023-05-04T12:21:54.755Z,31.80
2023-05-04T12:24:22.805Z,33.28
2023-05-04T12:26:50.660Z,33.88
2023-05-04T12:29:17.620Z,33.57
2023-05-04T12:31:44.434Z,34.28
2023-05-04T12:34:11.408Z,32.73
2023-05-04T12:36:38.196Z,33.18
2023-05-04T12:39:05.044Z,30.07
2023-05-04T12:41:32.521Z,30.75
2023-05-04T12:43:59.494Z,30.61
2023-05-04T12:46:26.410Z,30.43
2023-05-04T12:48:53.248Z,31.21
2023-05-04T12:51:20.129Z,31.49
2023-05-04T12:53:47.015Z,31.81
2023-05-04T12:56:13.955Z,30.13
2023-05-04T12:58:40.735Z,31.96
2023-05-04T13:01:07.663Z,30.69
2023-05-04T13:03:34.741Z,29.29
2023-05-04T13:06:01.583Z,29.49
2023-05-04T13:08:28.439Z,30.95
2023-05-04T13:10:55.325Z,30.38
2023-05-04T13:13:26.280Z,31.19
2023-05-04T13:15:53.315Z,31.18
2023-05-04T13:18:20.517Z,31.09
2023-05-04T13:20:47.461Z,29.77
2023-05-04T13:23:14.295Z,30.30
2023-05-04T13:25:41.195Z,30.80
2023-05-04T13:28:08.032Z,29.63
2023-05-04T13:30:34.994Z,29.92
2023-05-04T13:33:05.676Z,30.69
2023-05-04T13:35:37.509Z,29.37
2023-05-04T13:38:04.365Z,29.61
2023-05-04T13:40:31.521Z,30.61
2023-05-04T13:42:58.459Z,30.26
2023-05-04T13:45:26.299Z,30.44
2023-05-04T13:47:53.636Z,29.27
2023-05-04T13:50:20.645Z,29.08
2023-05-04T13:52:47.683Z,29.07
2023-05-04T13:55:16.623Z,29.12
2023-05-04T13:57:43.426Z,29.42
2023-05-04T14:00:11.296Z,29.83
2023-05-04T14:02:38.560Z,29.81
2023-05-04T14:05:06.696Z,30.56
2023-05-04T14:07:34.790Z,29.78
2023-05-04T14:10:02.431Z,27.52
2023-05-04T14:12:29.385Z,27.82
2023-05-04T14:14:57.279Z,29.19
2023-05-04T14:17:24.219Z,28.77
2023-05-04T14:19:51.147Z,28.50
2023-05-04T14:22:17.995Z,27.39
2023-05-04T14:24:44.806Z,27.20
2023-05-04T14:27:11.721Z,27.20
2023-05-04T14:29:38.534Z,26.58
2023-05-04T14:32:05.582Z,27.00
2023-05-04T14:34:32.742Z,26.65
2023-05-04T14:36:59.594Z,25.71
2023-05-04T14:39:26.396Z,26.42
2023-05-04T14:41:53.955Z,26.06
2023-05-04T14:44:22.684Z,25.86
2023-05-04T14:46:49.593Z,25.97
2023-05-04T14:49:28.403Z,26.52
2023-05-04T14:52:02.627Z,26.72
2023-05-04T14:54:29.477Z,26.85
2023-05-04T14:56:56.287Z,26.72
2023-05-04T14:59:23.124Z,26.28
2023-05-04T15:01:50.228Z,26.87
2023-05-04T15:04:17.496Z,26.55
2023-05-04T15:06:44.308Z,27.23
2023-05-04T15:09:11.543Z,27.71
2023-05-04T15:11:38.696Z,28.06
2023-05-04T15:14:05.523Z,28.58
2023-05-04T15:16:33.094Z,27.98
2023-05-04T15:19:00.243Z,27.42
2023-05-04T15:21:27.983Z,27.25
2023-05-04T15:23:55.094Z,27.01
2023-05-04T15:26:22.217Z,26.81
2023-05-04T15:28:49.556Z,27.38
2023-05-04T15:31:18.294Z,27.35
2023-05-04T15:33:45.238Z,27.70
2023-05-04T15:36:12.101Z,28.18
2023-05-04T15:38:38.973Z,28.58
2023-05-04T15:41:06.631Z,28.03
2023-05-04T15:43:34.273Z,28.37
2023-05-04T15:46:01.546Z,29.06
2023-05-04T15:48:28.640Z,28.23
2023-05-04T15:50:55.708Z,28.92
2023-05-04T15:53:22.560Z,28.68
2023-05-04T15:55:51.034Z,30.06
2023-05-04T15:58:18.085Z,30.48
2023-05-04T16:00:45.093Z,30.58
2023-05-04T16:03:12.219Z,29.54
2023-05-04T16:05:39.079Z,30.03
2023-05-04T16:08:05.997Z,30.01
2023-05-04T16:10:33.384Z,30.85
2023-05-04T16:13:03.950Z,30.76
2023-05-04T16:15:31.225Z,30.41
2023-05-04T16:17:58.273Z,29.75
2023-05-04T16:20:26.713Z,30.16
2023-05-04T16:22:53.578Z,30.03
2023-05-04T16:25:20.493Z,29.95
2023-05-04T16:27:47.378Z,29.84
2023-05-04T16:30:15.591Z,30.00
2023-05-04T16:32:42.538Z,29.87
2023-05-04T16:35:09.693Z,30.24
2023-05-04T16:37:38.016Z,30.54
2023-05-04T16:40:16.295Z,30.24
2023-05-04T16:42:43.945Z,30.24
2023-05-04T16:45:13.340Z,30.51
2023-05-04T16:47:41.862Z,31.04
2023-05-04T16:50:13.104Z,31.30
2023-05-04T16:52:40.211Z,30.97
2023-05-04T16:55:11.311Z,31.45
2023-05-04T16:57:38.582Z,32.12
2023-05-04T17:00:06.609Z,32.90
2023-05-04T17:02:33.974Z,32.14
2023-05-04T17:05:01.087Z,32.13
2023-05-04T17:07:28.416Z,32.33
2023-05-04T17:09:55.374Z,32.65
2023-05-04T17:12:23.344Z,33.44
2023-05-04T17:14:50.427Z,33.52
2023-05-04T17:17:17.290Z,33.85
2023-05-04T17:19:44.082Z,33.27
2023-05-04T17:22:11.339Z,33.75
2023-05-04T17:24:38.202Z,33.41
2023-05-04T17:27:05.085Z,33.83
2023-05-04T17:29:31.948Z,33.74
2023-05-04T17:31:58.848Z,34.19
2023-05-04T17:34:25.655Z,34.22
2023-05-04T17:36:52.542Z,35.01
2023-05-04T17:39:19.496Z,34.96
2023-05-04T17:41:49.103Z,35.17
2023-05-04T17:44:16.521Z,36.21
2023-05-04T17:46:44.192Z,36.11
2023-05-04T17:49:11.278Z,35.79
2023-05-04T17:51:39.437Z,36.13
2023-05-04T17:54:06.424Z,36.23
2023-05-04T17:56:33.274Z,36.10
2023-05-04T17:59:00.178Z,36.12
2023-05-04T18:01:27.133Z,36.88
2023-05-04T18:03:54.025Z,36.65
2023-05-04T18:06:20.947Z,36.75
2023-05-04T18:08:47.815Z,36.67
2023-05-04T18:11:14.614Z,37.09
2023-05-04T18:13:41.392Z,37.32
2023-05-04T18:16:08.306Z,37.87
2023-05-04T18:18:35.158Z,38.23
2023-05-04T18:21:01.935Z,38.30
2023-05-04T18:23:29.191Z,38.75
2023-05-04T18:25:56.035Z,39.37
2023-05-04T18:28:22.921Z,39.64
2023-05-04T18:30:49.815Z,40.50
2023-05-04T18:33:16.696Z,40.04
2023-05-04T18:35:43.538Z,40.29
2023-05-04T18:38:10.563Z,39.96
2023-05-04T18:40:37.417Z,39.94
2023-05-04T18:43:04.264Z,39.90
2023-05-04T18:45:31.252Z,40.62
2023-05-04T18:47:58.185Z,40.55
2023-05-04T18:50:25.060Z,40.59
2023-05-04T18:52:53.948Z,41.18
2023-05-04T18:55:21.165Z,41.36
2023-05-04T18:57:48.045Z,41.09
2023-05-04T19:00:15.280Z,42.17
2023-05-04T19:02:42.133Z,42.03
2023-05-04T19:05:10.437Z,41.47
2023-05-04T19:07:38.522Z,42.21
2023-05-04T19:10:06.673Z,41.87
2023-05-04T19:12:33.878Z,41.80
2023-05-04T19:15:00.767Z,41.79
2023-05-04T19:17:27.583Z,42.20
2023-05-04T19:19:54.623Z,42.22
2023-05-04T19:22:21.534Z,41.49
2023-05-04T19:24:51.898Z,42.42
2023-05-04T19:27:18.797Z,42.03
2023-05-04T19:29:45.803Z,42.30
2023-05-04T19:32:23.625Z,41.70
2023-05-04T19:34:52.455Z,41.74
2023-05-04T19:37:19.268Z,41.66
2023-05-04T19:39:46.323Z,42.47
2023-05-04T19:42:16.061Z,41.98
2023-05-04T19:44:42.981Z,41.46
2023-05-04T19:47:09.894Z,41.95
2023-05-04T19:49:36.764Z,43.15
2023-05-04T19:52:03.753Z,41.81
2023-05-04T19:54:30.652Z,42.55
2023-05-04T19:56:57.554Z,42.17
2023-05-04T19:59:24.535Z,41.83
2023-05-04T20:01:51.416Z,42.75
2023-05-04T20:04:18.792Z,42.26
2023-05-04T20:06:45.653Z,41.88
2023-05-04T20:09:12.558Z,42.17
2023-05-04T20:11:39.362Z,41.63
2023-05-04T20:14:06.273Z,42.19
2023-05-04T20:16:33.629Z,42.34
2023-05-04T20:19:03.404Z,42.71
2023-05-04T20:21:30.873Z,44.66
2023-05-04T20:23:57.773Z,44.40
2023-05-04T20:26:24.624Z,44.54
2023-05-04T20:28:51.418Z,43.98
2023-05-04T20:31:18.506Z,44.05
2023-05-04T20:33:45.700Z,44.81
2023-05-04T20:36:12.621Z,44.91
2023-05-04T20:38:39.457Z,44.56
2023-05-04T20:41:10.041Z,44.75
2023-05-04T20:43:36.905Z,45.44
2023-05-04T20:46:04.391Z,45.78
2023-05-04T20:48:31.769Z,45.10
2023-05-04T20:51:12.887Z,45.15
2023-05-04T20:53:41.361Z,44.26
2023-05-04T20:56:08.257Z,44.59
2023-05-04T20:58:35.191Z,44.59
2023-05-04T21:01:06.495Z,45.61
2023-05-04T21:03:33.968Z,46.11
2023-05-04T21:06:02.410Z,46.31
2023-05-04T21:08:29.294Z,47.45
2023-05-04T21:10:56.105Z,47.47
2023-05-04T21:13:23.015Z,47.95
2023-05-04T21:15:49.929Z,47.87
2023-05-04T21:18:18.394Z,48.03
2023-05-04T21:20:45.469Z,48.66
2023-05-04T21:23:12.447Z,50.38
2023-05-04T21:25:39.322Z,51.13
2023-05-04T21:28:06.286Z,50.62
2023-05-04T21:30:33.134Z,50.18
2023-05-04T21:33:00.703Z,51.17
2023-05-04T21:35:31.381Z,51.22
2023-05-04T21:37:59.236Z,51.64
2023-05-04T21:40:29.709Z,51.54
2023-05-04T21:42:56.614Z,52.26
2023-05-04T21:45:23.509Z,51.04
2023-05-04T21:47:50.434Z,50.90
2023-05-04T21:50:17.436Z,51.13
2023-05-04T21:52:44.210Z,52.21
2023-05-04T21:55:11.110Z,52.40
2023-05-04T21:57:37.996Z,51.49
2023-05-04T22:00:11.963Z,51.72
2023-05-04T22:02:39.458Z,52.46
2023-05-04T22:05:06.535Z,53.50
2023-05-04T22:07:35.324Z,54.20
2023-05-04T22:10:04.697Z,54.22
2023-05-04T22:12:31.542Z,53.66
2023-05-04T22:14:58.453Z,52.68
2023-05-04T22:17:25.395Z,52.84
2023-05-04T22:19:52.251Z,53.25
2023-05-04T22:22:19.043Z,52.96
2023-05-04T22:24:45.908Z,53.33
2023-05-04T22:27:12.706Z,52.65
2023-05-04T22:29:39.661Z,52.38
2023-05-04T22:32:07.685Z,52.30
2023-05-04T22:34:34.538Z,53.17
2023-05-04T22:37:03.114Z,53.62
2023-05-04T22:39:29.936Z,53.80
2023-05-04T22:41:56.815Z,52.63
2023-05-04T22:44:23.680Z,52.78
2023-05-04T22:46:50.608Z,52.30
2023-05-04T22:49:17.747Z,51.86
2023-05-04T22:51:44.614Z,51.84
2023-05-04T22:54:11.853Z,52.06
2023-05-04T22:56:38.732Z,51.92
2023-05-04T22:59:06.225Z,51.66
2023-05-04T23:01:33.085Z,51.50
2023-05-04T23:06:28.406Z,51.31
2023-05-04T23:08:55.249Z,50.87
2023-05-04T23:11:22.140Z,50.23
2023-05-04T23:13:49.206Z,50.25
2023-05-04T23:16:16.140Z,50.14
2023-05-04T23:18:43.032Z,50.14
2023-05-04T23:21:09.923Z,50.68
2023-05-04T23:23:36.996Z,50.25
2023-05-04T23:26:03.986Z,50.68
2023-05-04T23:28:30.860Z,50.75
2023-05-04T23:30:57.653Z,51.37
2023-05-04T23:33:24.461Z,52.67
2023-05-04T23:35:55.734Z,52.49
2023-05-04T23:38:23.083Z,53.09
2023-05-04T23:40:50.597Z,54.11
2023-05-04T23:43:17.563Z,55.75
2023-05-04T23:45:44.398Z,56.35
2023-05-04T23:48:11.272Z,57.07
2023-05-04T23:50:38.208Z,56.85
2023-05-04T23:53:05.053Z,56.92
2023-05-04T23:55:32.114Z,57.58
2023-05-04T23:57:58.943Z,58.14
